»·PEaware :: UAL576 KJAC-KBUR

UAL576 :: KJAC-KBUR

FLIGHT INFORMATION

Flight Status: Arrived
Operator:
United Airlines
More flights by this operator :: More flights under this callsign
Pilot: Anonymous 8274 (8274)
Aircraft: BOEING 737-200
(B732)
More flights by this aircraft type
Origin: KJAC Jackson Hole
United States
Destination: KBUR Bob Hope-Burbank
United States
More flights between these airports :: More routes between these airports
Route: +ALPIN2 IDA MLD TCH J11 CORKR J76 LAS H180 V283 HEC LYNXX8
File this flight plan on PilotEdge
Remarks:
Altitude:
(Current/Filed)
32,000ft
Speed:
(Current/Filed)
460kts
Departed: 06-Jul-19 06:56 PM
Arrived: 06-Jul-19 09:15 PM
Distance/Time
Traveled:
667nm/2:19
Distance/Time
To Go:
Arrived

Flight Plot

Page will automatically refresh every two minutes.


Map Options




Map Legend


Flown Route
Filed Route
Departure Airport
Arrival Airport
Navaid (VOR, NDB)
Fix

Horizontal Profiles

Position Reports

Time Latitude Longitude Heading Altitude Ground
Speed
06-Jul-19 18:24 43.603490 -110.737091 109 6428ft 0kts
06-Jul-19 18:25 43.603490 -110.737091 109 6428ft 0kts
06-Jul-19 18:26 43.603490 -110.737091 109 6428ft 0kts
06-Jul-19 18:27 43.603490 -110.737091 109 6428ft 0kts
06-Jul-19 18:28 43.603490 -110.737091 109 6428ft 0kts
06-Jul-19 18:29 43.603490 -110.737091 109 6428ft 0kts
06-Jul-19 18:30 43.603490 -110.737091 109 6428ft 0kts
06-Jul-19 18:31 43.603490 -110.737091 109 6428ft 0kts
06-Jul-19 18:32 43.603490 -110.737091 109 6428ft 0kts
06-Jul-19 18:33 43.603490 -110.737091 109 6428ft 0kts
06-Jul-19 18:34 43.603490 -110.737091 109 6428ft 0kts
06-Jul-19 18:35 43.603490 -110.737091 109 6428ft 0kts
06-Jul-19 18:36 43.603488 -110.737086 109 6428ft 0kts
06-Jul-19 18:37 43.603370 -110.737569 6 6428ft 2kts
06-Jul-19 18:38 43.603264 -110.737552 342 6428ft 0kts
06-Jul-19 18:39 43.603265 -110.737552 342 6428ft 0kts
06-Jul-19 18:40 43.603265 -110.737552 342 6428ft 0kts
06-Jul-19 18:41 43.603265 -110.737552 342 6428ft 0kts
06-Jul-19 18:42 43.603265 -110.737552 342 6428ft 0kts
06-Jul-19 18:43 43.603265 -110.737552 342 6428ft 0kts
06-Jul-19 18:44 43.603265 -110.737552 342 6428ft 0kts
06-Jul-19 18:45 43.603265 -110.737552 342 6428ft 0kts
06-Jul-19 18:46 43.603416 -110.737619 342 6428ft 4kts
06-Jul-19 18:47 43.605592 -110.737000 19 6428ft 18kts
06-Jul-19 18:48 43.610278 -110.734714 18 6428ft 15kts
06-Jul-19 18:49 43.614632 -110.732609 11 6428ft 11kts
06-Jul-19 18:50 43.614827 -110.732611 347 6428ft 0kts
06-Jul-19 18:51 43.614827 -110.732611 347 6428ft 0kts
06-Jul-19 18:52 43.614827 -110.732611 347 6428ft 0kts
06-Jul-19 18:53 43.615152 -110.732959 292 6428ft 7kts
06-Jul-19 18:54 43.614153 -110.734450 199 6428ft 40kts
06-Jul-19 18:55 43.582806 -110.750087 201 6883ft 156kts
06-Jul-19 18:56 43.542274 -110.780227 210 8026ft 187kts
06-Jul-19 18:57 43.488050 -110.817000 206 9642ft 243kts
06-Jul-19 18:58 43.420961 -110.857839 206 11606ft 282kts
06-Jul-19 18:59 43.347133 -110.905274 206 13671ft 310kts
06-Jul-19 19:00 43.262897 -110.959517 206 15381ft 343kts
06-Jul-19 19:01 43.218023 -111.062397 279 17535ft 353kts
06-Jul-19 19:02 43.260375 -111.188172 293 19453ft 368kts
06-Jul-19 19:03 43.306973 -111.314635 293 21236ft 375kts
06-Jul-19 19:04 43.350302 -111.445813 289 22845ft 379kts
06-Jul-19 19:05 43.389585 -111.582222 285 24270ft 384kts
06-Jul-19 19:06 43.423075 -111.719772 285 25540ft 389kts
06-Jul-19 19:07 43.459553 -111.861319 288 26771ft 394kts
06-Jul-19 19:08 43.503555 -112.001968 289 27827ft 399kts
06-Jul-19 19:09 43.514714 -112.147585 241 28746ft 395kts
06-Jul-19 19:10 43.418478 -112.205050 177 29682ft 425kts
06-Jul-19 19:11 43.300300 -112.177374 168 30407ft 436kts
06-Jul-19 19:12 43.184085 -112.140997 191 31415ft 414kts
06-Jul-19 19:13 43.070108 -112.169502 197 31944ft 417kts
06-Jul-19 19:14 42.957951 -112.214657 201 32127ft 428kts
06-Jul-19 19:15 42.848242 -112.261282 198 32128ft 431kts
06-Jul-19 19:16 42.731394 -112.295411 194 32125ft 430kts
06-Jul-19 19:17 42.613434 -112.326208 194 32117ft 428kts
06-Jul-19 19:18 42.497062 -112.357714 195 32115ft 426kts
06-Jul-19 19:19 42.381765 -112.391924 198 32114ft 422kts
06-Jul-19 19:20 42.268908 -112.432852 198 32096ft 420kts
06-Jul-19 19:21 42.153902 -112.447442 164 32094ft 435kts
06-Jul-19 19:22 42.042425 -112.384108 165 32064ft 433kts
06-Jul-19 19:23 41.927597 -112.339979 170 32060ft 429kts
06-Jul-19 19:24 41.814316 -112.301540 170 32063ft 428kts
06-Jul-19 19:25 41.698973 -112.262347 170 32062ft 428kts
06-Jul-19 19:26 41.584038 -112.223274 170 32062ft 427kts
06-Jul-19 19:27 41.469192 -112.184212 170 32062ft 427kts
06-Jul-19 19:28 41.354340 -112.145093 170 32066ft 427kts
06-Jul-19 19:29 41.239178 -112.105787 170 32074ft 427kts
06-Jul-19 19:30 41.124918 -112.066766 170 32094ft 426kts
06-Jul-19 19:31 41.010392 -112.027610 170 32098ft 425kts
06-Jul-19 19:32 40.899244 -112.002366 176 32080ft 422kts
06-Jul-19 19:33 40.782410 -111.972603 173 32043ft 424kts
06-Jul-19 19:34 40.665963 -111.964944 183 32037ft 418kts
06-Jul-19 19:35 40.550005 -111.961984 183 32047ft 418kts
06-Jul-19 19:36 40.433560 -111.949869 176 32063ft 422kts
06-Jul-19 19:37 40.316641 -111.933164 179 32072ft 421kts
06-Jul-19 19:38 40.200719 -111.933466 191 32073ft 415kts
06-Jul-19 19:39 40.085783 -111.952407 191 32071ft 415kts
06-Jul-19 19:40 39.971276 -111.974472 195 32072ft 414kts
06-Jul-19 19:42 39.859724 -111.997700 191 32075ft 417kts
06-Jul-19 19:43 39.743710 -112.015613 189 32078ft 419kts
06-Jul-19 19:44 39.627906 -112.028994 189 32081ft 420kts
06-Jul-19 19:45 39.511476 -112.042392 189 32082ft 421kts
06-Jul-19 19:46 39.395010 -112.055751 189 32081ft 421kts
06-Jul-19 19:47 39.278212 -112.069105 189 32081ft 422kts
06-Jul-19 19:48 39.161451 -112.082341 189 32080ft 422kts
06-Jul-19 19:49 39.044796 -112.095494 189 32079ft 422kts
06-Jul-19 19:50 38.928355 -112.109786 188 32079ft 421kts
06-Jul-19 19:51 38.815863 -112.126309 189 32084ft 421kts
06-Jul-19 19:52 38.699179 -112.144837 190 32090ft 421kts
06-Jul-19 19:53 38.584244 -112.167605 191 32212ft 418kts
06-Jul-19 19:54 38.469766 -112.190200 191 32235ft 418kts
06-Jul-19 19:55 38.355012 -112.212797 191 32235ft 418kts
06-Jul-19 19:56 38.240092 -112.234637 189 32320ft 416kts
06-Jul-19 19:57 38.125279 -112.251573 189 32335ft 416kts
06-Jul-19 19:58 38.010492 -112.268371 188 32333ft 417kts
06-Jul-19 19:59 37.899989 -112.277142 186 32333ft 418kts
06-Jul-19 20:00 37.788107 -112.287125 188 32340ft 417kts
06-Jul-19 20:01 37.673502 -112.308732 191 32338ft 418kts
06-Jul-19 20:02 37.557272 -112.314273 182 32337ft 421kts
06-Jul-19 20:02 37.459499 -112.313050 183 32337ft 421kts
06-Jul-19 20:03 37.342820 -112.318855 187 32243ft 422kts
06-Jul-19 20:05 37.205827 -112.333572 185 32143ft 425kts
06-Jul-19 20:05 37.107838 -112.340744 185 32142ft 424kts
06-Jul-19 20:06 36.990214 -112.349857 185 32141ft 424kts
06-Jul-19 20:08 36.859781 -112.358756 183 32147ft 425kts
06-Jul-19 20:08 36.761626 -112.362467 183 32147ft 425kts
06-Jul-19 20:09 36.643612 -112.366894 183 32146ft 426kts
06-Jul-19 20:10 36.525333 -112.371270 183 32211ft 424kts
06-Jul-19 20:11 36.407775 -112.375541 183 32261ft 423kts
06-Jul-19 20:12 36.289743 -112.379774 183 32280ft 423kts
06-Jul-19 20:13 36.172366 -112.386579 185 32280ft 423kts
06-Jul-19 20:14 36.064711 -112.427951 228 32289ft 418kts
06-Jul-19 20:15 36.036516 -112.566108 262 32279ft 427kts
06-Jul-19 20:16 36.034115 -112.710013 280 32271ft 436kts
06-Jul-19 20:17 36.093179 -112.839852 272 32288ft 427kts
06-Jul-19 20:18 36.071952 -112.980381 255 32238ft 420kts
06-Jul-19 20:19 36.053719 -113.123910 258 32199ft 424kts
06-Jul-19 20:20 36.050859 -113.271324 268 32109ft 432kts
06-Jul-19 20:21 36.052641 -113.419928 268 32061ft 434kts
06-Jul-19 20:22 36.057359 -113.569447 270 32028ft 437kts
06-Jul-19 20:23 36.063453 -113.714685 269 32026ft 438kts
06-Jul-19 20:24 36.069863 -113.865784 269 32017ft 440kts
06-Jul-19 20:25 36.076382 -114.017104 270 32001ft 441kts
06-Jul-19 20:26 36.083008 -114.168922 270 31957ft 443kts
06-Jul-19 20:27 36.089460 -114.320847 268 31931ft 443kts
06-Jul-19 20:28 36.089840 -114.472980 267 31932ft 443kts
06-Jul-19 20:29 36.086783 -114.625392 264 31931ft 442kts
06-Jul-19 20:30 36.080742 -114.773471 264 31930ft 443kts
06-Jul-19 20:31 36.074643 -114.925354 264 31913ft 441kts
06-Jul-19 20:32 36.068432 -115.076905 264 31920ft 439kts
06-Jul-19 20:33 36.023355 -115.207592 215 31960ft 428kts
06-Jul-19 20:34 35.938036 -115.308097 215 31934ft 425kts
06-Jul-19 20:35 35.829084 -115.343281 191 31962ft 427kts
06-Jul-19 20:36 35.711769 -115.367636 191 31962ft 427kts
06-Jul-19 20:37 35.599650 -115.407039 221 31974ft 420kts
06-Jul-19 20:38 35.540449 -115.529294 242 31962ft 420kts
06-Jul-19 20:39 35.484247 -115.650052 233 31964ft 419kts
06-Jul-19 20:40 35.413740 -115.763259 230 31956ft 420kts
06-Jul-19 20:41 35.338405 -115.872763 228 31943ft 421kts
06-Jul-19 20:42 35.253380 -115.970211 211 31947ft 421kts
06-Jul-19 20:43 35.150126 -116.037842 206 31934ft 423kts
06-Jul-19 20:44 35.053994 -116.116606 226 31938ft 420kts
06-Jul-19 20:45 34.977101 -116.215633 227 29774ft 393kts
06-Jul-19 20:46 34.907516 -116.313502 230 26206ft 374kts
06-Jul-19 20:47 34.840874 -116.406488 228 23933ft 379kts
06-Jul-19 20:48 34.776871 -116.507180 260 23936ft 379kts
06-Jul-19 20:49 34.775518 -116.636801 269 23924ft 386kts
06-Jul-19 20:50 34.769812 -116.768237 262 23929ft 387kts
06-Jul-19 20:51 34.755781 -116.898802 259 23930ft 388kts
06-Jul-19 20:52 34.738574 -117.027724 259 23966ft 386kts
06-Jul-19 20:53 34.725373 -117.157381 261 24007ft 387kts
06-Jul-19 20:54 34.716416 -117.285340 261 22603ft 378kts
06-Jul-19 20:55 34.707576 -117.411368 261 20742ft 372kts
06-Jul-19 20:56 34.695942 -117.535177 259 18924ft 365kts
06-Jul-19 20:57 34.679738 -117.655522 257 17132ft 359kts
06-Jul-19 20:58 34.663467 -117.774977 260 15081ft 354kts
06-Jul-19 20:59 34.650883 -117.892686 260 13992ft 349kts
06-Jul-19 21:00 34.638778 -118.005803 260 13988ft 315kts
06-Jul-19 21:01 34.626509 -118.102634 247 13342ft 293kts
06-Jul-19 21:02 34.600414 -118.200912 253 11630ft 304kts
06-Jul-19 21:03 34.581766 -118.299168 255 9874ft 294kts
06-Jul-19 21:04 34.561219 -118.393251 253 7999ft 278kts
06-Jul-19 21:05 34.541260 -118.482914 253 7999ft 273kts
06-Jul-19 21:06 34.513103 -118.569565 215 8011ft 277kts
06-Jul-19 21:07 34.439805 -118.564657 167 7925ft 275kts
06-Jul-19 21:08 34.363602 -118.552561 176 6805ft 272kts
06-Jul-19 21:09 34.320371 -118.492951 109 5470ft 244kts
06-Jul-19 21:10 34.299635 -118.427831 116 4611ft 168kts
06-Jul-19 21:11 34.280532 -118.383935 128 3019ft 138kts
06-Jul-19 21:12 34.246325 -118.369832 168 1888ft 133kts
06-Jul-19 21:13 34.211056 -118.360131 167 802ft 126kts
06-Jul-19 21:14 34.195344 -118.355221 358 739ft 7kts
06-Jul-19 21:15 34.195436 -118.355231 349 739ft 0kts
06-Jul-19 21:16 34.195462 -118.355238 348 739ft 1kts
06-Jul-19 21:17 34.196863 -118.355617 355 739ft 5kts
06-Jul-19 21:18 34.197218 -118.354214 91 739ft 5kts
06-Jul-19 21:19 34.197199 -118.352193 91 739ft 5kts
06-Jul-19 21:20 34.196988 -118.350628 169 739ft 3kts

Navigation Log

Ident Type
Flight plan parsing failed, navigation log unavailable